Time;durP1;ratioP1;P1;durP2;ratioP2;P2;SDS_P1;SDS_P2;PMS_P1;PMS_P2;Temp;Humidity;BMP_temperature;BMP_pressure;BME280_temperature;BME280_humidity;BME280_pressure;Samples;Min_cycle;Max_cycle;Signal;HPM_P1;HPM_P2
2023/06/15 00:02:42;;;;;;;8.07;6.43;;;;;;;;;;6222113;28;20061;-77
2023/06/15 00:05:44;;;;;;;8.13;6.38;;;;;;;;;;6216057;28;20100;-77
2023/06/15 00:08:46;;;;;;;10.20;7.65;;;;;;;;;;6218618;28;20058;-78
2023/06/15 00:11:48;;;;;;;11.70;7.40;;;;;;;;;;6220437;28;20278;-78
2023/06/15 00:14:49;;;;;;;8.38;6.18;;;;;;;;;;6218940;28;20049;-77
2023/06/15 00:17:52;;;;;;;11.18;8.60;;;;;;;;;;6217515;28;20341;-77
2023/06/15 00:20:55;;;;;;;10.10;8.60;;;;;;;;;;6217628;28;20073;-78
2023/06/15 00:23:57;;;;;;;12.73;9.38;;;;;;;;;;6219795;28;20265;-78
2023/06/15 00:27:17;;;;;;;14.75;9.07;;;;;;;;;;6213852;28;20062;-79
2023/06/15 00:30:19;;;;;;;11.30;9.18;;;;;;;;;;6218638;28;20049;-78
2023/06/15 00:33:22;;;;;;;11.98;9.18;;;;;;;;;;6216436;28;20396;-78
2023/06/15 00:36:24;;;;;;;12.60;9.25;;;;;;;;;;6217650;28;20121;-78
2023/06/15 00:39:25;;;;;;;12.05;9.02;;;;;;;;;;6218428;28;20050;-79
2023/06/15 00:42:29;;;;;;;13.10;9.32;;;;;;;;;;6218983;28;20058;-78
2023/06/15 00:45:31;;;;;;;11.38;8.98;;;;;;;;;;6218749;28;20230;-78
2023/06/15 00:48:36;;;;;;;12.77;9.52;;;;;;;;;;6217123;28;20076;-78
2023/06/15 00:51:39;;;;;;;12.15;9.00;;;;;;;;;;6218134;28;20262;-78
2023/06/15 00:54:43;;;;;;;14.00;9.90;;;;;;;;;;6218868;28;20054;-79
2023/06/15 00:57:49;;;;;;;;;;;;;;;;;;6215320;28;20338;-77
2023/06/15 01:00:51;;;;;;;14.88;10.13;;;;;;;;;;6217101;28;19925;-79
2023/06/15 01:03:57;;;;;;;10.85;8.75;;;;;;;;;;6218018;28;20069;-78
2023/06/15 01:07:04;;;;;;;11.68;8.80;;;;;;;;;;6218268;28;20353;-78
2023/06/15 01:10:07;;;;;;;11.15;8.88;;;;;;;;;;6216685;28;20049;-78
2023/06/15 01:13:12;;;;;;;11.95;7.80;;;;;;;;;;6220176;28;20058;-78
2023/06/15 01:16:17;;;;;;;10.98;8.23;;;;;;;;;;6217578;28;20047;-78
2023/06/15 01:19:31;;;;;;;11.00;7.70;;;;;;;;;;6215864;28;20602;-79
2023/06/15 01:22:45;;;;;;;9.60;8.15;;;;;;;;;;6221899;28;20125;-78
2023/06/15 01:26:05;;;;;;;10.35;8.23;;;;;;;;;;6217194;28;20120;-78
2023/06/15 01:29:07;;;;;;;10.82;7.85;;;;;;;;;;6217619;28;20049;-78
2023/06/15 01:32:10;;;;;;;11.68;8.27;;;;;;;;;;6220045;28;20054;-78
2023/06/15 01:35:11;;;;;;;9.32;7.45;;;;;;;;;;6218279;28;20364;-77
2023/06/15 01:38:14;;;;;;;11.02;7.50;;;;;;;;;;6216839;28;20093;-78
2023/06/15 01:41:17;;;;;;;11.18;7.57;;;;;;;;;;6215153;28;20061;-77
2023/06/15 01:44:19;;;;;;;9.25;7.32;;;;;;;;;;6215590;28;20054;-78
2023/06/15 01:47:21;;;;;;;9.48;7.60;;;;;;;;;;6216459;28;20124;-77
2023/06/15 01:50:23;;;;;;;9.82;7.28;;;;;;;;;;6215839;28;20046;-77
2023/06/15 01:53:25;;;;;;;9.05;6.60;;;;;;;;;;6213518;28;20061;-78
2023/06/15 01:56:28;;;;;;;12.13;7.15;;;;;;;;;;6215856;28;20097;-78
2023/06/15 01:59:30;;;;;;;9.15;7.30;;;;;;;;;;6218660;28;20057;-79
2023/06/15 02:02:32;;;;;;;10.38;6.88;;;;;;;;;;6216468;28;20312;-78
2023/06/15 02:05:38;;;;;;;10.30;7.30;;;;;;;;;;6216600;28;20354;-78
2023/06/15 02:08:40;;;;;;;9.15;7.47;;;;;;;;;;6214457;28;20105;-77
2023/06/15 02:11:45;;;;;;;12.23;6.82;;;;;;;;;;6218191;28;20404;-78
2023/06/15 02:14:47;;;;;;;9.05;7.22;;;;;;;;;;6216450;28;20062;-78
2023/06/15 02:17:59;;;;;;;9.48;7.65;;;;;;;;;;6216235;28;20277;-78
2023/06/15 02:21:00;;;;;;;11.10;6.90;;;;;;;;;;6214238;28;20061;-78
2023/06/15 02:24:02;;;;;;;10.57;7.82;;;;;;;;;;6215866;28;20152;-78
2023/06/15 02:27:06;;;;;;;11.27;8.23;;;;;;;;;;6216152;28;20054;-78
2023/06/15 02:30:09;;;;;;;12.40;8.27;;;;;;;;;;6217795;28;20072;-78
2023/06/15 02:33:12;;;;;;;10.30;9.03;;;;;;;;;;6215233;28;20357;-77
2023/06/15 02:36:19;;;;;;;11.35;8.25;;;;;;;;;;6215008;28;20503;-78
2023/06/15 02:39:21;;;;;;;12.27;9.52;;;;;;;;;;6218201;28;20049;-78
2023/06/15 02:42:24;;;;;;;13.55;10.30;;;;;;;;;;6216451;28;20050;-78
2023/06/15 02:45:26;;;;;;;11.20;9.57;;;;;;;;;;6214490;28;20238;-78
2023/06/15 02:48:28;;;;;;;16.60;10.30;;;;;;;;;;6215057;28;20108;-79
2023/06/15 02:51:31;;;;;;;13.73;11.02;;;;;;;;;;6215166;28;20054;-78
2023/06/15 02:54:32;;;;;;;15.60;10.30;;;;;;;;;;6215496;28;20362;-77
2023/06/15 02:57:35;;;;;;;14.10;10.38;;;;;;;;;;6214852;28;20049;-78
2023/06/15 03:00:40;;;;;;;17.60;12.07;;;;;;;;;;6215395;28;20056;-77
2023/06/15 03:03:42;;;;;;;13.73;11.38;;;;;;;;;;6214647;28;20282;-77
2023/06/15 03:06:44;;;;;;;15.45;10.75;;;;;;;;;;6214316;28;20104;-78
2023/06/15 03:09:47;;;;;;;14.23;11.15;;;;;;;;;;6217257;28;20069;-77
2023/06/15 03:12:50;;;;;;;14.25;10.85;;;;;;;;;;6218658;28;20054;-78
2023/06/15 03:15:51;;;;;;;16.33;11.70;;;;;;;;;;6211403;28;20065;-78
2023/06/15 03:18:54;;;;;;;16.00;10.85;;;;;;;;;;6214412;28;20063;-79
2023/06/15 03:21:57;;;;;;;14.90;11.30;;;;;;;;;;6213742;28;20099;-77
2023/06/15 03:24:59;;;;;;;17.25;11.88;;;;;;;;;;6215903;28;20089;-77
2023/06/15 03:28:03;;;;;;;15.90;11.52;;;;;;;;;;6216297;28;20451;-77
2023/06/15 03:31:05;;;;;;;16.02;11.45;;;;;;;;;;6213274;28;20434;-78
2023/06/15 03:34:06;;;;;;;13.82;11.80;;;;;;;;;;6213447;28;20073;-78
2023/06/15 03:37:08;;;;;;;16.48;11.60;;;;;;;;;;6214761;28;20054;-77
2023/06/15 03:40:10;;;;;;;14.43;11.90;;;;;;;;;;6209695;28;20061;-78
2023/06/15 03:43:14;;;;;;;14.43;11.05;;;;;;;;;;6217219;28;20099;-78
2023/06/15 03:46:16;;;;;;;;;;;;;;;;;;6214478;28;20046;-78
2023/06/15 03:49:17;;;;;;;14.23;10.80;;;;;;;;;;6212352;28;20130;-78
2023/06/15 03:52:19;;;;;;;14.57;11.05;;;;;;;;;;6214454;28;20234;-78
2023/06/15 03:55:21;;;;;;;13.10;10.82;;;;;;;;;;6210994;28;20081;-78
2023/06/15 03:58:24;;;;;;;14.85;10.95;;;;;;;;;;6214978;28;20378;-78
2023/06/15 04:01:26;;;;;;;;;;;;;;;;;;6218637;28;20072;-79
2023/06/15 04:04:28;;;;;;;15.45;10.35;;;;;;;;;;6213668;28;19917;-78
2023/06/15 04:07:29;;;;;;;12.27;10.15;;;;;;;;;;6213243;28;20053;-77
2023/06/15 04:10:31;;;;;;;15.57;10.98;;;;;;;;;;6215267;28;20254;-78
2023/06/15 04:13:35;;;;;;;14.40;10.55;;;;;;;;;;6216431;28;20061;-78
2023/06/15 04:16:36;;;;;;;13.57;10.13;;;;;;;;;;6214848;28;20222;-78
2023/06/15 04:19:38;;;;;;;15.95;9.65;;;;;;;;;;6215529;28;20101;-78
2023/06/15 04:22:40;;;;;;;10.45;9.07;;;;;;;;;;6216127;28;20833;-78
2023/06/15 04:25:41;;;;;;;11.43;9.80;;;;;;;;;;6209464;28;20056;-78
2023/06/15 04:28:49;;;;;;;12.73;9.98;;;;;;;;;;6217344;28;20085;-77
2023/06/15 04:31:54;;;;;;;11.85;9.05;;;;;;;;;;6216352;28;20062;-78
2023/06/15 04:34:56;;;;;;;12.63;8.80;;;;;;;;;;6213614;28;20072;-78
2023/06/15 04:37:58;;;;;;;15.10;8.20;;;;;;;;;;6212519;28;20269;-78
2023/06/15 04:41:00;;;;;;;11.50;8.30;;;;;;;;;;6212972;28;20058;-78
2023/06/15 04:44:03;;;;;;;10.57;8.07;;;;;;;;;;6215310;28;20330;-79
2023/06/15 04:47:06;;;;;;;9.82;8.02;;;;;;;;;;6217453;28;20105;-78
2023/06/15 04:50:08;;;;;;;10.60;7.78;;;;;;;;;;6203549;28;20046;-78
2023/06/15 04:53:10;;;;;;;9.85;7.72;;;;;;;;;;6219326;28;20169;-77
2023/06/15 04:56:12;;;;;;;10.45;8.07;;;;;;;;;;6214518;28;20132;-75
2023/06/15 04:59:15;;;;;;;10.65;8.10;;;;;;;;;;6215992;28;20085;-75
2023/06/15 05:02:16;;;;;;;10.25;8.20;;;;;;;;;;6219018;28;20096;-77
2023/06/15 05:05:18;;;;;;;10.32;8.02;;;;;;;;;;6218373;28;20053;-79
2023/06/15 05:08:20;;;;;;;10.77;8.00;;;;;;;;;;6215766;28;20104;-75
2023/06/15 05:11:21;;;;;;;10.70;7.63;;;;;;;;;;6221890;28;20049;-79
2023/06/15 05:14:26;;;;;;;9.63;7.85;;;;;;;;;;6217719;28;20110;-76
2023/06/15 05:17:27;;;;;;;11.75;7.80;;;;;;;;;;6215499;28;20060;-77
2023/06/15 05:20:29;;;;;;;9.18;7.35;;;;;;;;;;6217034;28;20054;-73
2023/06/15 05:23:31;;;;;;;9.65;7.72;;;;;;;;;;6218532;28;20180;-77
2023/06/15 05:26:33;;;;;;;10.32;7.70;;;;;;;;;;6219063;28;20046;-77
2023/06/15 05:29:37;;;;;;;10.25;7.57;;;;;;;;;;6220014;28;20092;-76
2023/06/15 05:32:39;;;;;;;9.27;7.38;;;;;;;;;;6224405;28;20603;-74
2023/06/15 05:35:40;;;;;;;11.07;7.20;;;;;;;;;;6216271;28;20058;-76
2023/06/15 05:38:42;;;;;;;7.97;7.15;;;;;;;;;;6215766;28;20046;-75
2023/06/15 05:41:44;;;;;;;16.63;6.97;;;;;;;;;;6215976;28;20103;-75
2023/06/15 05:44:46;;;;;;;10.60;6.38;;;;;;;;;;6216349;28;20069;-75
2023/06/15 05:47:48;;;;;;;10.20;5.80;;;;;;;;;;6216124;28;20054;-75
2023/06/15 05:50:50;;;;;;;7.95;5.70;;;;;;;;;;6217263;28;20091;-75
2023/06/15 05:53:52;;;;;;;7.32;5.40;;;;;;;;;;6216907;28;20113;-75
2023/06/15 05:56:53;;;;;;;8.80;6.40;;;;;;;;;;6216566;28;20054;-75
2023/06/15 05:59:56;;;;;;;7.43;5.88;;;;;;;;;;6215027;28;20090;-75
2023/06/15 06:02:58;;;;;;;6.85;6.15;;;;;;;;;;6215481;28;20768;-74
2023/06/15 06:06:00;;;;;;;6.78;5.55;;;;;;;;;;6215435;28;20234;-74
2023/06/15 06:09:02;;;;;;;8.07;5.60;;;;;;;;;;6216031;28;20110;-75
2023/06/15 06:12:04;;;;;;;7.55;5.10;;;;;;;;;;6219885;28;20061;-74
2023/06/15 06:15:08;;;;;;;5.43;4.50;;;;;;;;;;6213656;28;20061;-75
2023/06/15 06:18:10;;;;;;;6.18;4.50;;;;;;;;;;6213823;28;20057;-74
2023/06/15 06:21:12;;;;;;;6.28;4.80;;;;;;;;;;6212359;28;20050;-76
2023/06/15 06:24:13;;;;;;;6.57;5.32;;;;;;;;;;6218333;28;20041;-77
2023/06/15 06:27:15;;;;;;;8.25;5.80;;;;;;;;;;6215627;28;20078;-76
2023/06/15 06:30:18;;;;;;;6.57;5.43;;;;;;;;;;6218252;28;20062;-78
2023/06/15 06:33:20;;;;;;;6.20;5.40;;;;;;;;;;6216594;28;20065;-79
2023/06/15 06:36:21;;;;;;;7.25;5.63;;;;;;;;;;6214083;28;20046;-79
2023/06/15 06:39:23;;;;;;;7.50;6.53;;;;;;;;;;6213811;28;20360;-78
2023/06/15 06:42:25;;;;;;;10.82;5.82;;;;;;;;;;6216478;28;20096;-79
2023/06/15 06:45:28;;;;;;;8.98;5.70;;;;;;;;;;6216575;28;20114;-79
2023/06/15 06:48:30;;;;;;;8.52;5.82;;;;;;;;;;6214040;28;20062;-78
2023/06/15 06:51:31;;;;;;;9.50;6.00;;;;;;;;;;6215390;28;20114;-79
2023/06/15 06:54:34;;;;;;;9.00;5.38;;;;;;;;;;6215161;28;20060;-79
2023/06/15 06:57:36;;;;;;;7.15;4.85;;;;;;;;;;6216179;28;20128;-79
2023/06/15 07:00:39;;;;;;;8.35;5.20;;;;;;;;;;6212772;28;20050;-78
2023/06/15 07:03:41;;;;;;;7.85;5.20;;;;;;;;;;6220171;28;20084;-79
2023/06/15 07:06:42;;;;;;;7.93;5.65;;;;;;;;;;6217541;28;20061;-78
2023/06/15 07:09:44;;;;;;;9.35;5.80;;;;;;;;;;6216752;28;20066;-78
2023/06/15 07:12:45;;;;;;;7.95;6.40;;;;;;;;;;6216860;28;20058;-79
2023/06/15 07:15:54;;;;;;;9.10;5.88;;;;;;;;;;6212593;28;20525;-80
2023/06/15 07:18:56;;;;;;;7.13;4.93;;;;;;;;;;6215134;28;20254;-81
2023/06/15 07:21:58;;;;;;;9.40;5.20;;;;;;;;;;6216116;28;21014;-81
2023/06/15 07:24:59;;;;;;;7.43;5.00;;;;;;;;;;6212339;28;20387;-81
2023/06/15 07:28:01;;;;;;;6.60;4.85;;;;;;;;;;6213973;28;20345;-80
2023/06/15 07:31:04;;;;;;;5.05;4.38;;;;;;;;;;6216464;28;22357;-81
2023/06/15 07:34:07;;;;;;;9.18;4.70;;;;;;;;;;6213202;28;20054;-81
2023/06/15 07:37:09;;;;;;;6.95;4.78;;;;;;;;;;6214796;28;20231;-81
2023/06/15 07:40:11;;;;;;;6.20;4.07;;;;;;;;;;6216447;28;20057;-81
2023/06/15 07:43:13;;;;;;;7.60;4.80;;;;;;;;;;6214934;28;20227;-80
2023/06/15 07:46:16;;;;;;;6.30;4.18;;;;;;;;;;6214684;28;20288;-80
2023/06/15 07:49:17;;;;;;;9.32;5.47;;;;;;;;;;6216972;28;20053;-81
2023/06/15 07:52:19;;;;;;;8.82;5.63;;;;;;;;;;6214065;28;20473;-81
2023/06/15 07:55:21;;;;;;;9.18;5.72;;;;;;;;;;6212912;28;20058;-81
2023/06/15 07:58:23;;;;;;;11.77;6.17;;;;;;;;;;6215017;28;20077;-81
2023/06/15 08:01:26;;;;;;;5.88;5.20;;;;;;;;;;6214476;28;20123;-83
2023/06/15 08:04:28;;;;;;;8.05;4.55;;;;;;;;;;6216708;28;20112;-84
2023/06/15 08:07:30;;;;;;;7.22;5.35;;;;;;;;;;6211454;28;20084;-81
2023/06/15 08:10:31;;;;;;;7.82;5.25;;;;;;;;;;6216538;28;20054;-81
2023/06/15 08:13:33;;;;;;;7.18;5.10;;;;;;;;;;6214288;28;20247;-83
2023/06/15 08:16:36;;;;;;;7.68;4.63;;;;;;;;;;6213907;28;20580;-83
2023/06/15 08:19:38;;;;;;;6.72;4.45;;;;;;;;;;6216270;28;20057;-80
2023/06/15 08:22:40;;;;;;;5.22;4.05;;;;;;;;;;6220144;28;20060;-81
2023/06/15 08:25:41;;;;;;;7.07;4.43;;;;;;;;;;6219646;28;20054;-83
2023/06/15 08:28:43;;;;;;;6.82;4.00;;;;;;;;;;6221738;28;20056;-80
2023/06/15 08:31:46;;;;;;;4.60;3.80;;;;;;;;;;6220464;28;20057;-83
2023/06/15 08:34:49;;;;;;;;;;;;;;;;;;6218849;28;20129;-83
2023/06/15 08:37:50;;;;;;;8.70;3.80;;;;;;;;;;6217049;28;19918;-82
2023/06/15 08:40:52;;;;;;;7.40;4.45;;;;;;;;;;6219112;28;20050;-83
2023/06/15 08:43:55;;;;;;;9.35;4.20;;;;;;;;;;6220078;28;20050;-80
2023/06/15 08:47:00;;;;;;;7.80;5.30;;;;;;;;;;6217907;28;20049;-84
2023/06/15 08:50:04;;;;;;;4.43;3.75;;;;;;;;;;6218390;28;20042;-83
2023/06/15 08:53:06;;;;;;;5.85;4.15;;;;;;;;;;6219973;28;20357;-82
2023/06/15 08:56:11;;;;;;;3.97;3.58;;;;;;;;;;6217180;28;20054;-81
2023/06/15 08:59:12;;;;;;;5.88;3.83;;;;;;;;;;6217039;28;20065;-82
2023/06/15 09:02:19;;;;;;;5.03;3.83;;;;;;;;;;6218170;28;20089;-82
2023/06/15 09:05:21;;;;;;;5.13;3.58;;;;;;;;;;6198780;28;20066;-82
2023/06/15 09:08:23;;;;;;;5.22;3.50;;;;;;;;;;6216868;28;20046;-81
2023/06/15 09:11:24;;;;;;;5.60;4.10;;;;;;;;;;6217365;28;20054;-81
2023/06/15 09:14:26;;;;;;;6.80;3.83;;;;;;;;;;6218897;28;20090;-81
2023/06/15 09:17:30;;;;;;;5.55;3.80;;;;;;;;;;6217941;28;20696;-81
2023/06/15 09:20:32;;;;;;;6.43;4.30;;;;;;;;;;6216193;28;20239;-81
2023/06/15 09:23:34;;;;;;;;;;;;;;;;;;6219396;28;20049;-80
2023/06/15 09:26:39;;;;;;;5.93;5.30;;;;;;;;;;6217853;28;20113;-80
2023/06/15 09:29:45;;;;;;;9.98;5.22;;;;;;;;;;6220955;28;20058;-80
2023/06/15 09:32:48;;;;;;;7.18;5.72;;;;;;;;;;6220159;28;20060;-84
2023/06/15 09:35:58;;;;;;;7.07;4.97;;;;;;;;;;6218860;28;20065;-81
2023/06/15 09:39:00;;;;;;;6.70;5.38;;;;;;;;;;6218279;28;20054;-80
2023/06/15 09:42:02;;;;;;;6.35;4.90;;;;;;;;;;6214189;28;20058;-82
2023/06/15 09:45:05;;;;;;;6.03;4.70;;;;;;;;;;6223473;28;20045;-80
2023/06/15 09:48:12;;;;;;;7.68;5.13;;;;;;;;;;6218174;28;20046;-81
2023/06/15 09:51:15;;;;;;;8.07;5.20;;;;;;;;;;6217567;28;20053;-83
2023/06/15 09:54:18;;;;;;;8.65;6.20;;;;;;;;;;6217951;28;20317;-82
2023/06/15 09:57:20;;;;;;;6.10;5.35;;;;;;;;;;6216547;28;20050;-82
2023/06/15 10:00:24;;;;;;;7.28;6.53;;;;;;;;;;6216397;28;20058;-82
2023/06/15 10:03:28;;;;;;;8.00;6.53;;;;;;;;;;6217042;28;20171;-82
2023/06/15 10:06:31;;;;;;;7.75;6.95;;;;;;;;;;6216297;28;20221;-82
2023/06/15 10:09:37;;;;;;;9.27;6.50;;;;;;;;;;6217484;28;20064;-82
2023/06/15 10:12:40;;;;;;;9.48;5.68;;;;;;;;;;6217010;28;20113;-82
2023/06/15 10:15:45;;;;;;;7.95;5.75;;;;;;;;;;6218036;28;20077;-82
2023/06/15 10:18:54;;;;;;;10.60;6.18;;;;;;;;;;6215279;28;20058;-81
2023/06/15 10:21:57;;;;;;;10.32;6.80;;;;;;;;;;6217571;28;20064;-82
2023/06/15 10:24:59;;;;;;;9.88;6.75;;;;;;;;;;6211441;28;20379;-78
2023/06/15 10:28:02;;;;;;;9.15;6.05;;;;;;;;;;6216792;28;20057;-78
2023/06/15 10:31:08;;;;;;;9.27;6.30;;;;;;;;;;6213974;28;20048;-79
2023/06/15 10:34:16;;;;;;;8.40;6.57;;;;;;;;;;6219179;28;20080;-79
2023/06/15 10:37:22;;;;;;;7.72;6.38;;;;;;;;;;6215377;28;20050;-80
2023/06/15 10:40:29;;;;;;;8.18;7.38;;;;;;;;;;6216710;28;20057;-82
2023/06/15 10:43:31;;;;;;;7.55;6.68;;;;;;;;;;6215034;28;20050;-82
2023/06/15 10:46:34;;;;;;;6.23;5.57;;;;;;;;;;6216042;28;20322;-82
2023/06/15 10:49:38;;;;;;;6.75;5.43;;;;;;;;;;6216411;28;20326;-83
2023/06/15 10:52:39;;;;;;;7.57;6.60;;;;;;;;;;6215717;28;20057;-83
2023/06/15 10:55:41;;;;;;;8.88;7.53;;;;;;;;;;6214848;28;20113;-82
2023/06/15 10:58:54;;;;;;;7.60;6.57;;;;;;;;;;6215526;28;20080;-82
2023/06/15 11:01:57;;;;;;;9.55;8.55;;;;;;;;;;6213638;28;20334;-82
2023/06/15 11:05:03;;;;;;;9.23;7.80;;;;;;;;;;6214574;28;20116;-80
2023/06/15 11:08:16;;;;;;;6.25;5.70;;;;;;;;;;6214843;28;20050;-80
2023/06/15 11:11:20;;;;;;;7.97;7.18;;;;;;;;;;6217160;28;20073;-80
2023/06/15 11:14:23;;;;;;;9.02;6.53;;;;;;;;;;6214736;28;20054;-81
2023/06/15 11:17:24;;;;;;;11.82;8.52;;;;;;;;;;6216868;28;20241;-83
2023/06/15 11:20:59;;;;;;;50.95;38.15;;;;;;;;;;6214092;28;20053;-84
2023/06/15 11:24:02;;;;;;;17.85;13.05;;;;;;;;;;6218090;28;20058;-84
2023/06/15 11:27:05;;;;;;;15.57;13.88;;;;;;;;;;6216365;28;20060;-83
2023/06/15 11:30:08;;;;;;;11.60;10.40;;;;;;;;;;6215470;28;20135;-83
2023/06/15 11:33:11;;;;;;;42.75;33.95;;;;;;;;;;6213455;28;20050;-84
2023/06/15 11:36:14;;;;;;;25.30;20.35;;;;;;;;;;6216459;28;20058;-83
2023/06/15 11:39:21;;;;;;;49.60;40.75;;;;;;;;;;6217339;28;20058;-83
2023/06/15 11:42:23;;;;;;;33.80;29.80;;;;;;;;;;6216963;28;20100;-82
2023/06/15 11:45:25;;;;;;;;;;;;;;;;;;6215573;28;20104;-80
2023/06/15 11:48:27;;;;;;;9.32;6.22;;;;;;;;;;6215550;28;19976;-80
2023/06/15 11:51:30;;;;;;;6.55;5.95;;;;;;;;;;6212385;28;20231;-81
2023/06/15 11:54:33;;;;;;;7.28;6.53;;;;;;;;;;6218527;28;20345;-80
2023/06/15 11:57:35;;;;;;;9.35;5.75;;;;;;;;;;6217600;28;20050;-81
2023/06/15 12:00:37;;;;;;;9.75;6.45;;;;;;;;;;6220811;28;20050;-81
2023/06/15 12:03:41;;;;;;;11.45;5.43;;;;;;;;;;6221994;28;20096;-80
2023/06/15 12:06:44;;;;;;;7.40;5.32;;;;;;;;;;6218378;28;20337;-80
2023/06/15 12:09:46;;;;;;;9.18;6.45;;;;;;;;;;6218636;28;20066;-78
2023/06/15 12:12:50;;;;;;;9.65;6.40;;;;;;;;;;6221557;28;20169;-76
2023/06/15 12:15:52;;;;;;;8.93;6.03;;;;;;;;;;6216772;28;20108;-81
2023/06/15 12:18:54;;;;;;;4.95;4.40;;;;;;;;;;6221127;28;20062;-76
2023/06/15 12:22:00;;;;;;;7.72;6.22;;;;;;;;;;6220469;28;20082;-79
2023/06/15 12:25:02;;;;;;;6.13;5.43;;;;;;;;;;6221510;28;20061;-81
2023/06/15 12:28:05;;;;;;;;;;;;;;;;;;6220053;28;20077;-77
2023/06/15 12:31:11;;;;;;;6.05;5.45;;;;;;;;;;6216567;28;19960;-78
2023/06/15 12:34:13;;;;;;;6.22;4.65;;;;;;;;;;6221811;28;20376;-79
2023/06/15 12:37:18;;;;;;;7.85;7.00;;;;;;;;;;6217587;28;20061;-79
2023/06/15 12:40:21;;;;;;;7.22;6.53;;;;;;;;;;6221001;28;20054;-79
2023/06/15 12:43:25;;;;;;;7.40;5.40;;;;;;;;;;6217497;28;20109;-79
2023/06/15 12:46:27;;;;;;;5.55;4.57;;;;;;;;;;6217857;28;20356;-79
2023/06/15 12:49:29;;;;;;;6.88;4.97;;;;;;;;;;6220249;28;20048;-79
2023/06/15 12:52:32;;;;;;;;;;;;;;;;;;6220485;28;20050;-79
2023/06/15 12:55:33;;;;;;;6.60;4.97;;;;;;;;;;6217152;28;19926;-79
2023/06/15 12:58:35;;;;;;;6.63;5.07;;;;;;;;;;6217812;28;20050;-79
2023/06/15 13:01:37;;;;;;;5.82;4.97;;;;;;;;;;6217108;28;20050;-79
2023/06/15 13:04:39;;;;;;;;;;;;;;;;;;6221468;28;20050;-78
2023/06/15 13:07:42;;;;;;;6.28;5.07;;;;;;;;;;6219141;28;19933;-79
2023/06/15 13:10:44;;;;;;;7.57;5.20;;;;;;;;;;6210240;28;20123;-79
2023/06/15 13:13:46;;;;;;;7.55;5.93;;;;;;;;;;6220007;28;20303;-78
2023/06/15 13:16:48;;;;;;;20.50;18.20;;;;;;;;;;6216378;28;20054;-81
2023/06/15 13:19:50;;;;;;;7.25;6.20;;;;;;;;;;6217674;28;20297;-82
2023/06/15 13:22:53;;;;;;;11.63;9.15;;;;;;;;;;6219986;28;20057;-79
2023/06/15 13:25:57;;;;;;;7.85;4.40;;;;;;;;;;6218740;28;20050;-80
2023/06/15 13:28:58;;;;;;;11.25;5.72;;;;;;;;;;6220872;28;20077;-79
2023/06/15 13:32:03;;;;;;;6.18;4.07;;;;;;;;;;6218142;28;20057;-80
2023/06/15 13:35:10;;;;;;;5.88;4.35;;;;;;;;;;6219245;28;20050;-79
2023/06/15 13:38:17;;;;;;;7.63;5.10;;;;;;;;;;6220439;28;20234;-80
2023/06/15 13:41:19;;;;;;;5.32;4.82;;;;;;;;;;6219087;28;20053;-80
2023/06/15 13:44:23;;;;;;;9.18;4.75;;;;;;;;;;6217235;28;20081;-80
2023/06/15 13:47:24;;;;;;;5.03;4.40;;;;;;;;;;6218212;28;20050;-80
2023/06/15 13:50:31;;;;;;;5.53;4.53;;;;;;;;;;6217469;28;20056;-80
2023/06/15 13:53:35;;;;;;;4.97;4.00;;;;;;;;;;6217012;28;20133;-81
2023/06/15 13:56:39;;;;;;;4.30;3.60;;;;;;;;;;6218008;28;20050;-81
2023/06/15 13:59:41;;;;;;;4.72;4.30;;;;;;;;;;6215561;28;20074;-78
2023/06/15 14:02:44;;;;;;;5.45;4.35;;;;;;;;;;6217015;28;20045;-79
2023/06/15 14:05:48;;;;;;;9.13;4.82;;;;;;;;;;6216421;28;20331;-78
2023/06/15 14:08:51;;;;;;;5.10;4.63;;;;;;;;;;6218112;28;20062;-78
2023/06/15 14:11:57;;;;;;;9.57;4.80;;;;;;;;;;6217662;28;20309;-78
2023/06/15 14:15:02;;;;;;;6.93;4.53;;;;;;;;;;6217158;28;20061;-78
2023/06/15 14:18:04;;;;;;;7.55;4.97;;;;;;;;;;6214143;28;20046;-78
2023/06/15 14:21:10;;;;;;;4.38;3.92;;;;;;;;;;6216045;28;20248;-78
2023/06/15 14:24:13;;;;;;;7.18;4.63;;;;;;;;;;6218706;28;20057;-77
2023/06/15 14:27:18;;;;;;;7.25;4.90;;;;;;;;;;6218990;28;20368;-78
2023/06/15 14:30:20;;;;;;;4.80;4.30;;;;;;;;;;6216244;28;20049;-78
2023/06/15 14:33:22;;;;;;;5.47;4.90;;;;;;;;;;6219567;28;20046;-78
2023/06/15 14:36:24;;;;;;;6.90;4.63;;;;;;;;;;6216837;28;20325;-77
2023/06/15 14:39:27;;;;;;;6.15;4.75;;;;;;;;;;6215300;28;20050;-77
2023/06/15 14:42:31;;;;;;;7.45;4.20;;;;;;;;;;6215849;28;20046;-76
2023/06/15 14:45:32;;;;;;;10.70;5.38;;;;;;;;;;6216151;28;20085;-81
2023/06/15 14:48:34;;;;;;;6.05;4.70;;;;;;;;;;6214597;28;20065;-82
2023/06/15 14:51:36;;;;;;;9.48;4.90;;;;;;;;;;6216082;28;20293;-82
2023/06/15 14:54:42;;;;;;;6.03;4.75;;;;;;;;;;6218178;28;20049;-80
2023/06/15 14:57:44;;;;;;;7.03;5.70;;;;;;;;;;6213296;28;20086;-80
2023/06/15 15:00:45;;;;;;;6.30;4.80;;;;;;;;;;6211364;28;20420;-81
2023/06/15 15:03:47;;;;;;;6.15;4.75;;;;;;;;;;6216763;28;20322;-80
2023/06/15 15:06:50;;;;;;;8.68;4.15;;;;;;;;;;6211763;28;20091;-80
2023/06/15 15:09:56;;;;;;;6.82;4.20;;;;;;;;;;6213510;28;20050;-80
2023/06/15 15:12:59;;;;;;;6.38;3.90;;;;;;;;;;6216033;28;20342;-80
2023/06/15 15:16:02;;;;;;;4.93;3.92;;;;;;;;;;6212118;28;20345;-80
2023/06/15 15:19:04;;;;;;;4.97;4.30;;;;;;;;;;6215114;28;20093;-80
2023/06/15 15:22:05;;;;;;;6.28;4.03;;;;;;;;;;6207249;28;20074;-80
2023/06/15 15:25:09;;;;;;;5.65;3.45;;;;;;;;;;6216855;28;20982;-80
2023/06/15 15:28:11;;;;;;;4.93;3.83;;;;;;;;;;6219000;28;20052;-80
2023/06/15 15:31:12;;;;;;;4.93;4.43;;;;;;;;;;6214409;28;20062;-81
2023/06/15 15:34:16;;;;;;;5.15;3.67;;;;;;;;;;6217746;28;20065;-80
2023/06/15 15:37:18;;;;;;;5.22;4.05;;;;;;;;;;6215623;28;20041;-80
2023/06/15 15:40:21;;;;;;;3.83;3.33;;;;;;;;;;6214200;28;20053;-81
2023/06/15 15:43:23;;;;;;;4.32;3.92;;;;;;;;;;6215355;28;20582;-80
2023/06/15 15:46:25;;;;;;;8.40;4.45;;;;;;;;;;6212814;28;20058;-79
2023/06/15 15:49:26;;;;;;;5.88;3.85;;;;;;;;;;6200664;28;20073;-78
2023/06/15 15:52:28;;;;;;;5.60;3.60;;;;;;;;;;6214977;28;20053;-81
2023/06/15 15:55:31;;;;;;;7.13;3.88;;;;;;;;;;6214230;28;20042;-81
2023/06/15 15:58:33;;;;;;;6.28;3.55;;;;;;;;;;6215189;28;20062;-81
2023/06/15 16:01:43;;;;;;;6.50;4.22;;;;;;;;;;6211203;28;20092;-81
2023/06/15 16:04:45;;;;;;;5.75;4.32;;;;;;;;;;6213139;28;20058;-80
2023/06/15 16:07:47;;;;;;;8.10;4.10;;;;;;;;;;6213530;28;20060;-80
2023/06/15 16:10:53;;;;;;;5.70;3.20;;;;;;;;;;6212135;28;20070;-80
2023/06/15 16:13:54;;;;;;;9.05;4.00;;;;;;;;;;6200333;28;20254;-81
2023/06/15 16:16:56;;;;;;;5.05;4.55;;;;;;;;;;6214897;28;20045;-80
2023/06/15 16:20:06;;;;;;;6.75;3.72;;;;;;;;;;6208499;28;20058;-81
2023/06/15 16:23:08;;;;;;;4.70;4.28;;;;;;;;;;6207893;28;20065;-80
2023/06/15 16:26:11;;;;;;;4.32;3.90;;;;;;;;;;6214732;28;20109;-80
2023/06/15 16:29:13;;;;;;;5.70;3.42;;;;;;;;;;6213436;28;20342;-80
2023/06/15 16:32:15;;;;;;;6.72;4.07;;;;;;;;;;6214033;28;20745;-80
2023/06/15 16:35:17;;;;;;;6.15;3.67;;;;;;;;;;6209924;28;20057;-80
2023/06/15 16:38:21;;;;;;;4.78;3.85;;;;;;;;;;6214060;28;20042;-80
2023/06/15 16:41:26;;;;;;;4.20;3.70;;;;;;;;;;6212974;28;20100;-80
2023/06/15 16:44:28;;;;;;;7.15;3.72;;;;;;;;;;6217431;28;20060;-80
2023/06/15 16:47:30;;;;;;;4.90;3.47;;;;;;;;;;6217373;28;20109;-80
2023/06/15 16:50:32;;;;;;;7.25;3.42;;;;;;;;;;6220267;28;20060;-80
2023/06/15 16:53:34;;;;;;;4.88;3.50;;;;;;;;;;6220474;28;20069;-81
2023/06/15 16:56:38;;;;;;;4.40;3.60;;;;;;;;;;6215487;28;20046;-81
2023/06/15 16:59:42;;;;;;;5.00;3.30;;;;;;;;;;6215800;28;20461;-81
2023/06/15 17:02:43;;;;;;;7.60;3.13;;;;;;;;;;6219276;28;20053;-80
2023/06/15 17:05:47;;;;;;;5.22;3.08;;;;;;;;;;6217179;28;20054;-80
2023/06/15 17:08:49;;;;;;;4.53;3.10;;;;;;;;;;6218259;28;20075;-81
2023/06/15 17:11:52;;;;;;;4.93;3.20;;;;;;;;;;6218624;28;20726;-80
2023/06/15 17:14:54;;;;;;;8.38;3.72;;;;;;;;;;6217907;28;20069;-80
2023/06/15 17:17:56;;;;;;;7.43;3.33;;;;;;;;;;6216740;28;20057;-80
2023/06/15 17:20:58;;;;;;;4.50;4.00;;;;;;;;;;6217128;28;20124;-80
2023/06/15 17:23:59;;;;;;;5.00;3.78;;;;;;;;;;6216664;28;20050;-80
2023/06/15 17:27:03;;;;;;;4.43;3.45;;;;;;;;;;6215812;28;20109;-80
2023/06/15 17:30:09;;;;;;;3.97;3.40;;;;;;;;;;6220045;28;20068;-81
2023/06/15 17:33:11;;;;;;;5.45;4.03;;;;;;;;;;6218091;28;20127;-81
2023/06/15 17:36:13;;;;;;;2.88;2.60;;;;;;;;;;6216058;28;20042;-80
2023/06/15 17:39:32;;;;;;;4.53;3.05;;;;;;;;;;6216584;28;20069;-80
2023/06/15 17:42:36;;;;;;;4.88;2.88;;;;;;;;;;6217865;28;20114;-81
2023/06/15 17:45:40;;;;;;;7.20;3.67;;;;;;;;;;6216571;28;20049;-80
2023/06/15 17:48:43;;;;;;;5.65;3.72;;;;;;;;;;6215862;28;20074;-81
2023/06/15 17:51:46;;;;;;;5.22;3.28;;;;;;;;;;6206541;28;20253;-80
2023/06/15 17:54:47;;;;;;;5.45;3.40;;;;;;;;;;6215802;28;20061;-80
2023/06/15 17:57:51;;;;;;;4.75;3.97;;;;;;;;;;6214717;28;20261;-80
2023/06/15 18:00:52;;;;;;;;;;;;;;;;;;6204417;28;20170;-80
2023/06/15 18:03:54;;;;;;;3.95;3.50;;;;;;;;;;6214902;28;20231;-81
2023/06/15 18:06:56;;;;;;;6.40;4.20;;;;;;;;;;6214603;28;20391;-82
2023/06/15 18:09:57;;;;;;;4.63;3.92;;;;;;;;;;6216536;28;20061;-80
2023/06/15 18:13:00;;;;;;;5.50;3.83;;;;;;;;;;6216126;28;20336;-80
2023/06/15 18:16:02;;;;;;;;;;;;;;;;;;6216136;28;20069;-77